Time;durP1;ratioP1;P1;durP2;ratioP2;P2;SDS_P1;SDS_P2;PMS_P1;PMS_P2;Temp;Humidity;BMP_temperature;BMP_pressure;BME280_temperature;BME280_humidity;BME280_pressure;Samples;Min_cycle;Max_cycle;Signal;HPM_P1;HPM_P2
2021/12/14 00:00:44;;;;;;;16.10;10.37;;;7.90;99.90;;;;;;5015759;28;20575;-57
2021/12/14 00:03:12;;;;;;;13.33;10.73;;;8.00;99.90;;;;;;5016199;28;20455;-55
2021/12/14 00:05:40;;;;;;;16.30;11.63;;;8.00;99.90;;;;;;5016479;28;20839;-55
2021/12/14 00:08:11;;;;;;;12.17;9.13;;;8.00;99.90;;;;;;5015717;28;20491;-56
2021/12/14 00:10:50;;;;;;;18.70;10.33;;;7.90;99.90;;;;;;5015421;28;20490;-57
2021/12/14 00:13:28;;;;;;;16.03;11.63;;;7.90;99.90;;;;;;5015909;28;20910;-56
2021/12/14 00:15:57;;;;;;;14.23;9.73;;;7.80;99.90;;;;;;5015797;28;20435;-56
2021/12/14 00:18:24;;;;;;;16.70;10.63;;;7.80;99.90;;;;;;5015938;28;20530;-57
2021/12/14 00:20:55;;;;;;;17.67;10.70;;;8.00;99.90;;;;;;5015729;28;20569;-57
2021/12/14 00:26:13;;;;;;;11.60;9.53;;;7.80;99.90;;;;;;5015628;28;20450;-57
2021/12/14 00:28:42;;;;;;;14.17;9.70;;;7.80;99.90;;;;;;5015877;28;20530;-56
2021/12/14 00:31:15;;;;;;;18.20;11.20;;;7.80;99.90;;;;;;5016119;28;20529;-56
2021/12/14 00:33:43;;;;;;;13.97;10.60;;;7.80;99.90;;;;;;5015366;28;20844;-56
2021/12/14 00:36:13;;;;;;;16.10;11.50;;;7.80;99.90;;;;;;5015315;28;20823;-56
2021/12/14 00:38:42;;;;;;;14.43;9.83;;;7.80;99.90;;;;;;5015270;28;20545;-56
2021/12/14 00:41:12;;;;;;;16.60;11.07;;;7.70;99.90;;;;;;5015393;28;20832;-56
2021/12/14 00:43:41;;;;;;;14.13;9.50;;;7.60;99.90;;;;;;5015070;28;20796;-56
2021/12/14 00:46:10;;;;;;;15.67;10.57;;;7.70;99.90;;;;;;5015492;28;20447;-56
2021/12/14 00:48:38;;;;;;;16.30;10.03;;;7.70;99.90;;;;;;5015014;28;20453;-57
2021/12/14 00:51:06;;;;;;;14.70;11.00;;;7.70;99.90;;;;;;5014307;28;20469;-56
2021/12/14 00:53:34;;;;;;;13.20;8.50;;;7.60;99.90;;;;;;5014984;28;20938;-56
2021/12/14 00:56:04;;;;;;;14.77;10.47;;;7.80;99.90;;;;;;5015131;28;20455;-57
2021/12/14 00:58:32;;;;;;;12.30;10.20;;;7.70;99.90;;;;;;5014773;28;20442;-55
2021/12/14 01:01:07;;;;;;;13.00;9.70;;;7.80;99.90;;;;;;5014941;28;20490;-55
2021/12/14 01:03:37;;;;;;;15.80;9.40;;;7.80;99.90;;;;;;5015107;28;20421;-56
2021/12/14 01:06:10;;;;;;;15.13;9.90;;;7.70;99.90;;;;;;5014897;28;20462;-56
2021/12/14 01:08:39;;;;;;;13.13;8.83;;;7.80;99.90;;;;;;5014528;28;20467;-56
2021/12/14 01:11:13;;;;;;;12.50;10.27;;;7.70;99.90;;;;;;5014177;28;20817;-57
2021/12/14 01:13:49;;;;;;;13.33;8.80;;;7.80;99.90;;;;;;5014990;28;20530;-57
2021/12/14 01:16:32;;;;;;;12.30;8.63;;;7.70;99.90;;;;;;5014495;28;20948;-56
2021/12/14 01:19:13;;;;;;;12.57;10.20;;;7.70;99.90;;;;;;5014503;28;20450;-57
2021/12/14 01:21:58;;;;;;;14.30;9.87;;;7.70;99.90;;;;;;5014264;28;20482;-56
2021/12/14 01:24:59;;;;;;;20.03;9.47;;;7.60;99.90;;;;;;5014726;28;20530;-56
2021/12/14 01:27:29;;;;;;;12.90;9.20;;;7.70;99.90;;;;;;5014334;28;20451;-56
2021/12/14 01:29:57;;;;;;;11.00;8.37;;;7.70;99.90;;;;;;5014508;28;20499;-56
2021/12/14 01:32:29;;;;;;;12.40;8.53;;;7.80;99.90;;;;;;5014176;28;20462;-56
2021/12/14 01:34:56;;;;;;;15.73;10.30;;;7.80;99.90;;;;;;5014152;28;20432;-55
2021/12/14 01:37:28;;;;;;;16.87;9.07;;;7.60;99.90;;;;;;5014211;28;20447;-57
2021/12/14 01:40:06;;;;;;;17.67;9.50;;;7.60;99.90;;;;;;5013995;28;20493;-55
2021/12/14 01:42:36;;;;;;;17.03;9.83;;;7.70;99.90;;;;;;5014037;28;20433;-57
2021/12/14 01:45:09;;;;;;;16.60;10.60;;;7.80;99.90;;;;;;5014312;28;20783;-55
2021/12/14 01:47:41;;;;;;;15.00;9.70;;;7.80;99.90;;;;;;5014019;28;20522;-55
2021/12/14 01:50:12;;;;;;;18.00;8.80;;;7.80;99.90;;;;;;5014149;28;20463;-55
2021/12/14 01:52:41;;;;;;;17.90;9.93;;;7.80;99.90;;;;;;5014040;28;20762;-55
2021/12/14 01:55:12;;;;;;;15.30;9.63;;;7.80;99.90;;;;;;5013704;28;20490;-55
2021/12/14 01:57:41;;;;;;;14.77;8.97;;;7.70;99.90;;;;;;5013809;28;20447;-55
2021/12/14 02:00:16;;;;;;;16.20;8.60;;;7.70;99.90;;;;;;5013869;28;20552;-55
2021/12/14 02:02:47;;;;;;;18.07;10.00;;;7.70;99.90;;;;;;5013136;28;20802;-55
2021/12/14 02:05:20;;;;;;;13.70;7.73;;;7.70;99.90;;;;;;5013522;28;20847;-55
2021/12/14 02:07:48;;;;;;;16.47;9.67;;;7.60;99.90;;;;;;5013943;28;20438;-55
2021/12/14 02:10:19;;;;;;;17.93;8.43;;;7.60;99.90;;;;;;5013550;28;20486;-55
2021/12/14 02:12:46;;;;;;;17.47;8.73;;;7.60;99.90;;;;;;5013923;28;20799;-55
2021/12/14 02:15:16;;;;;;;14.33;8.80;;;7.60;99.90;;;;;;5013918;28;20810;-55
2021/12/14 02:17:46;;;;;;;15.40;9.40;;;7.70;99.90;;;;;;5013447;28;20462;-55
2021/12/14 02:20:17;;;;;;;16.67;9.57;;;7.60;99.90;;;;;;5013856;28;20471;-54
2021/12/14 02:22:46;;;;;;;13.67;8.43;;;7.60;99.90;;;;;;5013661;28;20435;-54
2021/12/14 02:25:15;;;;;;;14.03;9.00;;;7.60;99.90;;;;;;5013369;28;20443;-55
2021/12/14 02:27:44;;;;;;;18.43;8.93;;;7.70;99.90;;;;;;5013409;28;20449;-55
2021/12/14 02:30:16;;;;;;;17.50;9.30;;;7.70;99.90;;;;;;5013375;28;20828;-55
2021/12/14 02:32:43;;;;;;;15.33;9.10;;;7.60;99.90;;;;;;5013329;28;20416;-55
2021/12/14 02:35:14;;;;;;;14.90;9.00;;;7.60;99.90;;;;;;5013177;28;20489;-55
2021/12/14 02:37:48;;;;;;;13.43;9.87;;;7.70;99.90;;;;;;5013313;28;20427;-55
2021/12/14 02:40:20;;;;;;;19.57;10.43;;;7.70;99.90;;;;;;5013086;28;20479;-55
2021/12/14 02:42:51;;;;;;;18.10;10.10;;;7.60;99.90;;;;;;5012952;28;20506;-55
2021/12/14 02:45:22;;;;;;;18.60;10.50;;;7.60;99.90;;;;;;5013354;28;20554;-55
2021/12/14 02:47:49;;;;;;;15.47;9.20;;;7.60;99.90;;;;;;5013156;28;20429;-55
2021/12/14 02:50:16;;;;;;;18.20;9.70;;;7.60;99.90;;;;;;5012811;28;20968;-55
2021/12/14 02:52:44;;;;;;;17.57;11.17;;;7.60;99.90;;;;;;5013198;28;20445;-55
2021/12/14 02:55:15;;;;;;;17.90;10.43;;;7.60;99.90;;;;;;5012660;28;20798;-55
2021/12/14 02:57:46;;;;;;;15.23;10.37;;;7.70;99.90;;;;;;5013014;28;20438;-55
2021/12/14 03:00:18;;;;;;;13.87;8.27;;;7.60;99.90;;;;;;5012973;28;20459;-54
2021/12/14 03:02:46;;;;;;;15.47;9.20;;;7.50;99.90;;;;;;5012909;28;20829;-54
2021/12/14 03:05:18;;;;;;;15.07;9.40;;;7.50;99.90;;;;;;5012682;28;20447;-55
2021/12/14 03:07:50;;;;;;;14.23;8.97;;;7.50;99.90;;;;;;5013038;28;20432;-55
2021/12/14 03:10:34;;;;;;;16.80;9.63;;;7.50;99.90;;;;;;5012446;28;20506;-55
2021/12/14 03:13:04;;;;;;;14.73;9.33;;;7.60;99.90;;;;;;5013399;28;20435;-55
2021/12/14 03:15:35;;;;;;;15.90;9.30;;;7.70;99.90;;;;;;5017275;28;20436;-54
2021/12/14 03:18:07;;;;;;;12.53;8.70;;;7.70;99.90;;;;;;5016757;28;20904;-55
2021/12/14 03:20:37;;;;;;;16.30;10.53;;;7.70;99.90;;;;;;5017053;28;20463;-55
2021/12/14 03:23:07;;;;;;;16.10;9.50;;;7.50;99.90;;;;;;5017263;28;20530;-55
2021/12/14 03:25:39;;;;;;;15.53;8.57;;;7.50;99.90;;;;;;5017265;28;20515;-55
2021/12/14 03:28:08;;;;;;;17.90;8.80;;;7.50;99.90;;;;;;5016937;28;20449;-55
2021/12/14 03:30:40;;;;;;;12.30;7.60;;;7.50;99.90;;;;;;5016363;28;20554;-54
2021/12/14 03:33:13;;;;;;;9.47;7.43;;;7.50;99.90;;;;;;5016922;28;20859;-55
2021/12/14 03:35:44;;;;;;;12.43;7.20;;;7.50;99.90;;;;;;5016980;28;20427;-55
2021/12/14 03:38:16;;;;;;;15.10;8.30;;;7.60;99.90;;;;;;5016724;28;20435;-55
2021/12/14 03:40:56;;;;;;;11.60;9.00;;;7.60;99.90;;;;;;5016666;28;20487;-55
2021/12/14 03:43:23;;;;;;;12.80;7.57;;;7.60;99.90;;;;;;5016351;28;20446;-54
2021/12/14 03:45:51;;;;;;;15.00;8.23;;;7.60;99.90;;;;;;5016584;28;20458;-55
2021/12/14 03:48:22;;;;;;;12.30;7.90;;;7.70;99.90;;;;;;5016155;28;20446;-55
2021/12/14 03:50:49;;;;;;;15.37;8.87;;;7.70;99.90;;;;;;5016077;28;20528;-55
2021/12/14 03:53:20;;;;;;;15.57;9.13;;;7.70;99.90;;;;;;5016116;28;20546;-55
2021/12/14 03:55:51;;;;;;;14.87;8.33;;;7.70;99.90;;;;;;5016178;28;20435;-55
2021/12/14 03:58:20;;;;;;;12.20;8.33;;;7.60;99.90;;;;;;5016052;28;20432;-54
2021/12/14 04:00:56;;;;;;;10.10;7.50;;;7.60;99.90;;;;;;5015808;28;20475;-55
2021/12/14 04:03:24;;;;;;;13.60;8.70;;;7.60;99.90;;;;;;5016469;28;20435;-55
2021/12/14 04:05:52;;;;;;;11.13;6.73;;;7.50;99.90;;;;;;5016217;28;20627;-55
2021/12/14 04:08:21;;;;;;;10.80;6.40;;;7.50;99.90;;;;;;5015818;28;20493;-55
2021/12/14 04:10:51;;;;;;;9.33;6.47;;;7.50;99.90;;;;;;5015509;28;20544;-55
2021/12/14 04:13:21;;;;;;;13.77;6.80;;;7.40;99.90;;;;;;5015916;28;20439;-55
2021/12/14 04:15:49;;;;;;;10.87;6.07;;;7.40;99.90;;;;;;5015924;28;20470;-54
2021/12/14 04:18:17;;;;;;;13.20;8.10;;;7.40;99.90;;;;;;5015748;28;20447;-55
2021/12/14 04:20:47;;;;;;;13.07;7.27;;;7.40;99.90;;;;;;5015729;28;20471;-55
2021/12/14 04:23:18;;;;;;;13.93;7.27;;;7.30;99.90;;;;;;5015594;28;20485;-55
2021/12/14 04:25:47;;;;;;;13.60;6.67;;;7.40;99.90;;;;;;5014628;28;20439;-55
2021/12/14 04:28:19;;;;;;;9.27;5.90;;;7.30;99.90;;;;;;5015809;28;20474;-55
2021/12/14 04:30:47;;;;;;;11.70;6.60;;;7.20;99.90;;;;;;5015509;28;20514;-55
2021/12/14 04:33:16;;;;;;;9.27;4.90;;;7.30;99.90;;;;;;5015679;28;20446;-54
2021/12/14 04:35:45;;;;;;;8.80;5.70;;;7.00;99.90;;;;;;5015714;28;20475;-54
2021/12/14 04:38:22;;;;;;;8.70;5.03;;;7.10;99.90;;;;;;5015716;28;20545;-54
2021/12/14 04:52:00;;;;;;;8.03;5.43;;;7.10;99.90;;;;;;5015236;28;20427;-55
2021/12/14 04:54:30;;;;;;;8.17;5.67;;;7.10;99.90;;;;;;5015116;28;20439;-55
2021/12/14 04:56:58;;;;;;;9.03;5.73;;;7.00;99.90;;;;;;5015227;28;20645;-54
2021/12/14 04:59:29;;;;;;;7.77;5.30;;;7.00;99.90;;;;;;5015181;28;20535;-54
2021/12/14 05:02:00;;;;;;;7.33;5.50;;;7.00;99.90;;;;;;5014909;28;20550;-54
2021/12/14 05:04:28;;;;;;;7.70;5.10;;;6.80;99.90;;;;;;5014740;28;20467;-54
2021/12/14 05:07:04;;;;;;;7.17;4.90;;;6.80;99.90;;;;;;5014989;28;20451;-54
2021/12/14 05:09:36;;;;;;;5.80;4.10;;;6.70;99.90;;;;;;5014838;28;20512;-55
2021/12/14 05:12:10;;;;;;;7.83;5.77;;;6.70;99.90;;;;;;5014761;28;20490;-55
2021/12/14 05:14:41;;;;;;;6.60;5.03;;;6.70;99.90;;;;;;5014799;28;20438;-54
2021/12/14 05:17:10;;;;;;;5.63;4.40;;;6.80;99.90;;;;;;5014686;28;20408;-55
2021/12/14 05:19:41;;;;;;;4.67;4.20;;;6.80;99.90;;;;;;5014427;28;20526;-55
2021/12/14 05:22:10;;;;;;;5.20;4.07;;;6.80;99.90;;;;;;5014787;28;20472;-55
2021/12/14 05:24:39;;;;;;;7.23;6.40;;;6.90;99.90;;;;;;5014429;28;20462;-54
2021/12/14 05:27:09;;;;;;;6.27;4.73;;;7.00;99.90;;;;;;5014728;28;20450;-55
2021/12/14 05:29:40;;;;;;;8.03;5.30;;;6.70;99.90;;;;;;5014123;28;20466;-54
2021/12/14 05:32:09;;;;;;;6.80;5.10;;;6.80;99.90;;;;;;5014747;28;20431;-55
2021/12/14 05:34:38;;;;;;;5.73;5.13;;;6.70;99.90;;;;;;5014366;28;20443;-54
2021/12/14 05:37:06;;;;;;;6.37;5.20;;;6.60;99.90;;;;;;5013948;28;20447;-55
2021/12/14 05:39:50;;;;;;;5.27;4.77;;;6.40;99.90;;;;;;5013919;28;20554;-55
2021/12/14 05:45:09;;;;;;;5.97;4.30;;;6.60;99.90;;;;;;5014266;28;20430;-55
2021/12/14 05:47:46;;;;;;;7.00;4.80;;;6.60;99.90;;;;;;5014340;28;20526;-55
2021/12/14 05:50:22;;;;;;;5.90;4.67;;;6.50;99.90;;;;;;5013760;28;20865;-55
2021/12/14 05:52:49;;;;;;;5.97;4.90;;;6.50;99.90;;;;;;5013794;28;20522;-55
2021/12/14 05:55:20;;;;;;;6.17;5.07;;;6.50;99.90;;;;;;5013839;28;20451;-55
2021/12/14 05:57:48;;;;;;;5.07;4.20;;;6.50;99.90;;;;;;5014240;28;20431;-55
2021/12/14 06:00:17;;;;;;;6.50;5.00;;;6.50;99.90;;;;;;5013642;28;20471;-54
2021/12/14 06:02:45;;;;;;;6.13;4.97;;;6.50;99.90;;;;;;5013565;28;20483;-55
2021/12/14 06:05:14;;;;;;;6.90;5.00;;;6.60;99.90;;;;;;5013959;28;20446;-56
2021/12/14 06:07:41;;;;;;;6.33;4.83;;;6.60;99.90;;;;;;5013473;28;20451;-55
2021/12/14 06:10:10;;;;;;;5.83;4.83;;;6.50;99.90;;;;;;5013390;28;20483;-55
2021/12/14 06:12:38;;;;;;;5.30;4.30;;;6.50;99.90;;;;;;5013948;28;20478;-55
2021/12/14 06:15:10;;;;;;;5.80;4.27;;;6.40;99.90;;;;;;5013548;28;20459;-55
2021/12/14 06:17:40;;;;;;;4.87;3.90;;;6.40;99.90;;;;;;5013757;28;20434;-55
2021/12/14 06:20:11;;;;;;;7.30;5.23;;;6.50;99.90;;;;;;5013401;28;20481;-55
2021/12/14 06:22:39;;;;;;;6.30;5.30;;;6.30;99.90;;;;;;5013155;28;20977;-55
2021/12/14 06:25:10;;;;;;;4.97;4.47;;;6.30;99.90;;;;;;5013146;28;20435;-55
2021/12/14 06:27:38;;;;;;;6.30;5.00;;;6.30;99.90;;;;;;5013904;28;20534;-55
2021/12/14 06:30:08;;;;;;;7.30;5.30;;;6.30;99.90;;;;;;5013524;28;20499;-55
2021/12/14 06:32:40;;;;;;;6.70;5.17;;;6.30;99.90;;;;;;5013080;28;20879;-55
2021/12/14 06:35:11;;;;;;;6.23;5.10;;;6.30;99.90;;;;;;5013305;28;20432;-55
2021/12/14 06:40:43;;;;;;;5.80;4.77;;;6.30;99.90;;;;;;5004058;28;20818;-55
2021/12/14 06:43:14;;;;;;;6.53;4.77;;;6.30;99.90;;;;;;5013029;28;20949;-55
2021/12/14 06:45:44;;;;;;;6.80;5.13;;;6.30;99.90;;;;;;5013154;28;20515;-54
2021/12/14 06:48:18;;;;;;;4.60;4.20;;;6.30;99.90;;;;;;5012794;28;20431;-54
2021/12/14 06:50:49;;;;;;;5.17;4.47;;;6.30;99.90;;;;;;5013061;28;20478;-54
2021/12/14 06:53:19;;;;;;;7.90;4.97;;;6.30;99.90;;;;;;5013047;28;20522;-55
2021/12/14 06:55:47;;;;;;;7.30;5.37;;;6.30;99.90;;;;;;5012341;28;20485;-55
2021/12/14 06:58:17;;;;;;;7.03;4.80;;;6.10;99.90;;;;;;5012821;28;20453;-56
2021/12/14 07:00:47;;;;;;;9.23;4.73;;;6.10;99.90;;;;;;5013170;28;20517;-56
2021/12/14 07:03:17;;;;;;;7.00;4.80;;;6.20;99.90;;;;;;5012982;28;20567;-55
2021/12/14 07:05:50;;;;;;;6.23;5.27;;;6.20;99.90;;;;;;5012792;28;20841;-55
2021/12/14 07:08:23;;;;;;;7.50;5.97;;;6.30;99.90;;;;;;5013164;28;20412;-56
2021/12/14 07:10:51;;;;;;;7.37;5.60;;;6.30;99.90;;;;;;5012707;28;20493;-55
2021/12/14 07:13:21;;;;;;;7.60;5.80;;;6.20;99.90;;;;;;5012824;28;20539;-55
2021/12/14 07:15:51;;;;;;;6.60;6.00;;;6.30;99.90;;;;;;5012861;28;20451;-55
2021/12/14 07:18:25;;;;;;;6.87;6.10;;;6.20;99.90;;;;;;5012894;28;20505;-55
2021/12/14 07:20:53;;;;;;;7.67;5.80;;;6.30;99.90;;;;;;5012523;28;20910;-55
2021/12/14 07:23:25;;;;;;;7.50;5.50;;;6.10;99.90;;;;;;5012431;28;20495;-55
2021/12/14 07:25:59;;;;;;;8.87;6.27;;;6.20;99.90;;;;;;5012975;28;20790;-55
2021/12/14 07:28:31;;;;;;;10.27;6.77;;;6.30;99.90;;;;;;5012592;28;20434;-55
2021/12/14 07:31:01;;;;;;;7.77;5.13;;;6.20;99.90;;;;;;5012327;28;21055;-55
2021/12/14 07:33:31;;;;;;;7.70;5.23;;;6.30;99.90;;;;;;5012199;28;20550;-55
2021/12/14 07:36:00;;;;;;;7.60;6.53;;;6.50;99.90;;;;;;5012975;28;20447;-55
2021/12/14 07:38:32;;;;;;;8.43;6.00;;;6.40;99.90;;;;;;5012506;28;20541;-55
2021/12/14 07:41:08;;;;;;;7.90;5.90;;;6.40;99.90;;;;;;5012526;28;20877;-56
2021/12/14 07:43:38;;;;;;;6.87;6.27;;;6.30;99.90;;;;;;5012080;28;20466;-54
2021/12/14 07:46:19;;;;;;;8.63;5.60;;;6.40;99.90;;;;;;5012529;28;20910;-54
2021/12/14 07:48:50;;;;;;;6.10;5.33;;;6.50;99.90;;;;;;5012315;28;20437;-54
2021/12/14 07:51:19;;;;;;;8.63;6.40;;;6.40;99.90;;;;;;5012007;28;20481;-54
2021/12/14 07:53:51;;;;;;;5.73;5.13;;;6.40;99.90;;;;;;5011855;28;20522;-54
2021/12/14 07:56:32;;;;;;;6.57;5.13;;;6.60;99.90;;;;;;5012129;28;20441;-54
2021/12/14 07:59:00;;;;;;;6.20;5.60;;;6.50;99.90;;;;;;5012447;28;20439;-56
2021/12/14 08:01:27;;;;;;;7.30;5.23;;;6.50;99.90;;;;;;5014967;28;20650;-54
2021/12/14 08:04:06;;;;;;;8.53;6.40;;;6.50;99.90;;;;;;5015877;28;20581;-54
2021/12/14 08:06:48;;;;;;;8.90;6.27;;;6.60;99.90;;;;;;5015968;28;20439;-54
2021/12/14 08:09:44;;;;;;;6.13;5.57;;;6.60;99.90;;;;;;5015821;28;20557;-55
2021/12/14 08:12:12;;;;;;;6.30;4.70;;;6.50;99.90;;;;;;5014505;28;20489;-55
2021/12/14 08:14:40;;;;;;;7.50;6.00;;;6.50;99.90;;;;;;5015389;28;20814;-55
2021/12/14 08:17:10;;;;;;;8.83;5.30;;;6.60;99.90;;;;;;5015764;28;20450;-54
2021/12/14 08:19:40;;;;;;;7.40;6.30;;;6.60;99.90;;;;;;5015079;28;20493;-55
2021/12/14 08:22:11;;;;;;;7.93;5.53;;;6.70;99.90;;;;;;5015275;28;20931;-55
2021/12/14 08:24:39;;;;;;;6.23;5.10;;;6.60;99.90;;;;;;5015724;28;20427;-55
2021/12/14 08:27:08;;;;;;;10.10;7.07;;;6.60;99.90;;;;;;5015712;28;20813;-56
2021/12/14 08:29:37;;;;;;;6.97;6.23;;;6.60;99.90;;;;;;5015334;28;20451;-55
2021/12/14 08:32:09;;;;;;;7.43;6.13;;;6.80;99.90;;;;;;5014918;28;20447;-55
2021/12/14 08:34:41;;;;;;;6.80;5.47;;;6.90;99.90;;;;;;5015260;28;20929;-55
2021/12/14 08:37:11;;;;;;;6.23;5.63;;;6.80;99.90;;;;;;5015384;28;20784;-55
2021/12/14 08:39:46;;;;;;;7.50;6.60;;;6.70;99.90;;;;;;5014911;28;20490;-55
2021/12/14 08:42:19;;;;;;;7.23;6.20;;;6.80;99.90;;;;;;5015149;28;20445;-55
2021/12/14 08:44:53;;;;;;;7.57;5.87;;;6.70;99.90;;;;;;5014955;28;20431;-55
2021/12/14 08:47:30;;;;;;;7.80;6.03;;;6.80;99.90;;;;;;5015262;28;20435;-55
2021/12/14 08:50:02;;;;;;;8.77;6.60;;;6.90;99.90;;;;;;5014820;28;20923;-56
2021/12/14 08:52:31;;;;;;;6.47;5.60;;;7.00;99.90;;;;;;5014650;28;20839;-56
2021/12/14 08:54:59;;;;;;;7.50;6.20;;;7.00;99.90;;;;;;5014874;28;20803;-55
2021/12/14 08:57:29;;;;;;;12.37;5.77;;;7.10;99.90;;;;;;5014788;28;20545;-55
2021/12/14 09:00:01;;;;;;;6.77;5.53;;;7.00;99.90;;;;;;5015284;28;20467;-56
2021/12/14 09:02:31;;;;;;;6.77;5.07;;;7.10;99.90;;;;;;5014821;28;20490;-56
2021/12/14 09:05:04;;;;;;;8.10;5.67;;;7.30;99.90;;;;;;5014907;28;20451;-55
2021/12/14 09:07:32;;;;;;;5.90;5.10;;;7.40;99.90;;;;;;5014914;28;20439;-55
2021/12/14 09:10:02;;;;;;;6.50;5.63;;;7.50;99.90;;;;;;5014710;28;20557;-57
2021/12/14 09:12:31;;;;;;;8.47;5.90;;;7.50;99.90;;;;;;5014138;28;20565;-56
2021/12/14 09:15:03;;;;;;;5.30;4.80;;;7.50;99.90;;;;;;5015003;28;20474;-55
2021/12/14 09:17:30;;;;;;;7.43;5.53;;;7.60;99.90;;;;;;5014436;28;20415;-55
2021/12/14 09:20:02;;;;;;;6.00;5.00;;;7.70;99.90;;;;;;5014574;28;20471;-55
2021/12/14 09:22:35;;;;;;;4.80;4.17;;;7.60;99.90;;;;;;5014465;28;20432;-55
2021/12/14 09:25:05;;;;;;;7.13;6.13;;;7.70;99.90;;;;;;5014844;28;20434;-55
2021/12/14 09:27:36;;;;;;;5.50;5.00;;;7.80;99.90;;;;;;5014066;28;20443;-55
2021/12/14 09:30:05;;;;;;;7.10;5.47;;;7.90;99.90;;;;;;5014022;28;20467;-55
2021/12/14 09:32:34;;;;;;;6.30;5.23;;;8.00;99.90;;;;;;5013850;28;20483;-55
2021/12/14 09:35:04;;;;;;;7.40;5.50;;;8.00;99.90;;;;;;5014124;28;20525;-55
2021/12/14 09:37:32;;;;;;;5.93;5.33;;;8.10;99.90;;;;;;5014041;28;20435;-56
2021/12/14 09:40:06;;;;;;;6.03;4.50;;;8.10;99.90;;;;;;5014015;28;20513;-54
2021/12/14 09:42:34;;;;;;;4.33;3.93;;;8.40;99.90;;;;;;5013804;28;21013;-54
2021/12/14 09:45:09;;;;;;;5.20;3.50;;;8.30;99.90;;;;;;5014120;28;20458;-54
2021/12/14 09:47:37;;;;;;;4.70;4.30;;;8.40;99.90;;;;;;5013715;28;20434;-54
2021/12/14 09:50:12;;;;;;;4.20;3.80;;;8.60;99.90;;;;;;5013750;28;20828;-54
2021/12/14 09:52:43;;;;;;;3.50;3.20;;;8.70;99.90;;;;;;5013768;28;20435;-55
2021/12/14 09:55:13;;;;;;;4.40;3.77;;;8.80;99.90;;;;;;5014060;28;20419;-55
2021/12/14 09:57:45;;;;;;;5.30;3.60;;;8.60;99.90;;;;;;5013910;28;20438;-54
2021/12/14 10:00:17;;;;;;;3.27;2.90;;;8.50;99.90;;;;;;5013588;28;20474;-55
2021/12/14 10:02:47;;;;;;;4.13;3.73;;;8.30;99.90;;;;;;5013410;28;20467;-55
2021/12/14 10:05:21;;;;;;;5.03;3.30;;;8.60;99.90;;;;;;5013677;28;20447;-55
2021/12/14 10:07:49;;;;;;;4.60;3.20;;;8.80;99.90;;;;;;5013628;28;20453;-54
2021/12/14 10:10:18;;;;;;;3.60;3.30;;;8.80;99.90;;;;;;5013446;28;20482;-54
2021/12/14 10:12:53;;;;;;;16.43;5.70;;;8.80;99.90;;;;;;5013561;28;20432;-55
2021/12/14 10:15:36;;;;;;;4.60;3.83;;;8.60;99.90;;;;;;5013795;28;20450;-55
2021/12/14 10:18:07;;;;;;;8.20;6.20;;;8.70;99.90;;;;;;5013438;28;20463;-56
2021/12/14 10:20:40;;;;;;;8.30;5.50;;;8.70;99.90;;;;;;5012952;28;20471;-55
2021/12/14 10:23:09;;;;;;;5.83;4.87;;;8.60;99.90;;;;;;5012076;28;20477;-55
2021/12/14 10:25:36;;;;;;;4.10;3.70;;;8.50;99.90;;;;;;5013024;28;20823;-55
2021/12/14 10:28:03;;;;;;;8.53;3.50;;;8.70;99.90;;;;;;5012876;28;20534;-55
2021/12/14 10:30:34;;;;;;;6.97;5.13;;;8.90;99.90;;;;;;5012746;28;20467;-55
2021/12/14 10:33:02;;;;;;;7.83;6.63;;;8.90;99.90;;;;;;5013098;28;20438;-55
2021/12/14 10:35:35;;;;;;;13.67;7.03;;;8.80;99.90;;;;;;5012867;28;20810;-55
2021/12/14 10:38:20;;;;;;;9.53;7.50;;;8.50;99.90;;;;;;5012714;28;20928;-55
2021/12/14 10:43:37;;;;;;;7.73;6.70;;;8.50;99.90;;;;;;5012697;28;20968;-56
2021/12/14 10:46:10;;;;;;;9.23;6.93;;;8.40;99.90;;;;;;5013024;28;20454;-56
2021/12/14 10:48:42;;;;;;;11.40;7.27;;;8.40;99.90;;;;;;5012808;28;20444;-55
2021/12/14 10:51:13;;;;;;;12.93;7.60;;;8.60;99.90;;;;;;5013058;28;20506;-56
2021/12/14 10:53:45;;;;;;;11.37;8.37;;;8.80;99.90;;;;;;5012625;28;20447;-56
2021/12/14 10:56:16;;;;;;;9.53;7.97;;;8.90;99.90;;;;;;5012845;28;20435;-55
2021/12/14 10:58:45;;;;;;;15.33;7.70;;;9.20;99.90;;;;;;5012310;28;20427;-56
2021/12/14 11:01:16;;;;;;;10.20;6.93;;;9.30;99.90;;;;;;5012557;28;20473;-56
2021/12/14 11:03:48;;;;;;;7.37;6.30;;;9.00;99.90;;;;;;5012499;28;20467;-55
2021/12/14 11:06:21;;;;;;;9.40;7.03;;;9.20;99.90;;;;;;5012660;28;20569;-54
2021/12/14 11:09:01;;;;;;;10.80;6.93;;;9.00;99.90;;;;;;5012816;28;20443;-56
2021/12/14 11:11:35;;;;;;;9.60;7.50;;;9.00;99.90;;;;;;5012180;28;20573;-56
2021/12/14 11:14:06;;;;;;;7.03;6.43;;;8.90;99.90;;;;;;5012592;28;21060;-55
2021/12/14 11:19:17;;;;;;;12.40;8.10;;;9.10;99.90;;;;;;5012293;28;20555;-55
2021/12/14 11:21:44;;;;;;;9.30;7.03;;;9.50;99.90;;;;;;5012338;28;20447;-55
2021/12/14 11:24:13;;;;;;;8.30;7.47;;;9.90;99.90;;;;;;5012268;28;20809;-55
2021/12/14 11:26:40;;;;;;;12.37;9.03;;;10.00;99.90;;;;;;5012620;28;20542;-55
2021/12/14 11:29:11;;;;;;;14.37;8.30;;;9.80;99.90;;;;;;5012668;28;20439;-55
2021/12/14 11:31:45;;;;;;;9.70;7.17;;;9.50;99.90;;;;;;5012671;28;20558;-55
2021/12/14 11:34:15;;;;;;;8.07;7.03;;;9.50;99.90;;;;;;5013780;28;20439;-55
2021/12/14 11:36:45;;;;;;;9.03;6.57;;;10.40;99.90;;;;;;5016390;28;20427;-55
2021/12/14 11:39:23;;;;;;;7.40;6.70;;;;;;;;;;5016108;28;20459;-55
2021/12/14 11:41:53;;;;;;;8.33;7.53;;;10.80;99.90;;;;;;5016520;28;20857;-55
2021/12/14 11:44:24;;;;;;;9.63;7.00;;;10.60;99.90;;;;;;5015927;28;20497;-55
2021/12/14 11:47:08;;;;;;;15.00;8.53;;;10.90;99.90;;;;;;5016259;28;20791;-55
2021/12/14 11:49:53;;;;;;;10.87;8.00;;;10.50;99.90;;;;;;5016200;28;20431;-55
2021/12/14 11:52:38;;;;;;;9.17;7.23;;;10.60;99.90;;;;;;5016389;28;20427;-56
2021/12/14 11:55:39;;;;;;;10.13;8.13;;;10.30;99.90;;;;;;5016510;28;20435;-54
2021/12/14 11:58:30;;;;;;;8.60;7.47;;;10.30;99.90;;;;;;5012719;28;20949;-53
2021/12/14 12:01:02;;;;;;;9.70;8.70;;;10.10;99.90;;;;;;5016206;28;20526;-58
2021/12/14 12:03:37;;;;;;;11.07;7.90;;;9.90;99.90;;;;;;5015767;28;20431;-53
2021/12/14 12:06:13;;;;;;;10.40;6.93;;;9.90;99.90;;;;;;5015993;28;20439;-54
2021/12/14 12:11:44;;;;;;;12.10;8.23;;;10.30;99.90;;;;;;4974060;28;20477;-56
2021/12/14 12:14:24;;;;;;;12.47;7.20;;;10.40;99.90;;;;;;5006585;28;20818;-55
2021/12/14 12:16:54;;;;;;;9.07;7.67;;;10.30;99.90;;;;;;5015791;28;20518;-55
2021/12/14 12:19:25;;;;;;;11.57;8.07;;;10.20;99.90;;;;;;5015265;28;20516;-55
2021/12/14 12:21:54;;;;;;;7.40;6.47;;;10.20;99.90;;;;;;5015245;28;20445;-55
2021/12/14 12:24:42;;;;;;;9.60;7.60;;;10.30;99.90;;;;;;5015069;28;20493;-55
2021/12/14 12:27:40;;;;;;;9.80;7.90;;;10.10;99.90;;;;;;5015350;28;20469;-55
2021/12/14 12:30:12;;;;;;;9.23;8.33;;;9.70;99.90;;;;;;4992391;28;20483;-55
2021/12/14 12:32:40;;;;;;;10.27;8.43;;;9.70;99.90;;;;;;5015286;28;20535;-55
2021/12/14 12:35:27;;;;;;;9.90;8.87;;;9.50;99.90;;;;;;5014853;28;20577;-55
2021/12/14 12:37:56;;;;;;;10.50;8.27;;;9.40;99.90;;;;;;5015218;28;20427;-56
2021/12/14 12:40:37;;;;;;;11.07;8.50;;;9.40;99.90;;;;;;5015147;28;20482;-56
2021/12/14 12:43:26;;;;;;;10.70;8.50;;;9.80;99.90;;;;;;5015809;28;20465;-56
2021/12/14 12:46:04;;;;;;;10.80;9.53;;;9.90;99.90;;;;;;5014429;28;20430;-55
2021/12/14 12:48:59;;;;;;;9.53;7.90;;;9.80;99.90;;;;;;5015030;28;20443;-55
2021/12/14 12:52:00;;;;;;;9.97;7.60;;;9.70;99.90;;;;;;5015006;28;20474;-56
2021/12/14 12:54:52;;;;;;;10.37;8.37;;;9.50;99.90;;;;;;5014846;28;20428;-55
2021/12/14 12:57:33;;;;;;;9.17;8.10;;;9.40;99.90;;;;;;5014570;28;20435;-56
2021/12/14 13:00:28;;;;;;;12.63;9.20;;;9.40;99.90;;;;;;5014575;28;20495;-55
2021/12/14 13:02:59;;;;;;;11.90;8.80;;;9.40;99.90;;;;;;5013589;28;20459;-55
2021/12/14 13:05:36;;;;;;;9.87;7.80;;;9.50;99.90;;;;;;5014402;28;20847;-55
2021/12/14 13:08:14;;;;;;;8.77;8.00;;;9.60;99.90;;;;;;5014854;28;20462;-55
2021/12/14 13:10:45;;;;;;;9.50;8.53;;;9.40;99.90;;;;;;5014568;28;21009;-55
2021/12/14 13:13:15;;;;;;;11.13;7.57;;;9.40;99.90;;;;;;5014773;28;20439;-55
2021/12/14 13:16:07;;;;;;;9.37;7.10;;;9.30;99.90;;;;;;5014292;28;20798;-56
2021/12/14 13:18:42;;;;;;;9.23;6.60;;;9.40;99.90;;;;;;5014539;28;20455;-55
2021/12/14 13:21:29;;;;;;;11.07;7.63;;;9.30;99.90;;;;;;5014017;28;20999;-55
2021/12/14 13:24:08;;;;;;;8.13;6.20;;;9.50;99.90;;;;;;5014236;28;20431;-56
2021/12/14 13:26:41;;;;;;;7.77;7.00;;;9.60;99.90;;;;;;5014698;28;20533;-55
2021/12/14 13:29:22;;;;;;;9.17;8.20;;;9.50;99.90;;;;;;5014096;28;20522;-56
2021/12/14 13:31:54;;;;;;;9.60;7.80;;;9.50;99.90;;;;;;5013914;28;20440;-56
2021/12/14 13:34:26;;;;;;;12.97;9.37;;;9.70;99.90;;;;;;5014500;28;20427;-56
2021/12/14 13:36:54;;;;;;;8.20;6.87;;;9.70;99.90;;;;;;5013881;28;20438;-56
2021/12/14 13:39:23;;;;;;;13.40;7.50;;;9.60;99.90;;;;;;5013616;28;20930;-56
2021/12/14 13:42:26;;;;;;;11.10;8.23;;;9.60;99.90;;;;;;5013961;28;20461;-56
2021/12/14 13:44:54;;;;;;;8.33;7.53;;;9.40;99.90;;;;;;5013582;28;21157;-55